Time;durP1;ratioP1;P1;durP2;ratioP2;P2;SDS_P1;SDS_P2;PMS_P1;PMS_P2;Temp;Humidity;BMP_temperature;BMP_pressure;BME280_temperature;BME280_humidity;BME280_pressure;Samples;Min_cycle;Max_cycle;Signal;HPM_P1;HPM_P2
2023/09/29 00:00:49;;;;;;;17.30;9.90;;;;;;;17.70;73.43;99681.25;107865;1288;22434;-50
2023/09/29 00:03:15;;;;;;;22.30;9.90;;;;;;;17.68;73.68;99681.23;107888;1289;23193;-55
2023/09/29 00:05:43;;;;;;;16.30;10.00;;;;;;;17.65;74.01;99679.66;107877;1307;22245;-49
2023/09/29 00:08:09;;;;;;;11.40;8.70;;;;;;;17.61;73.66;99678.86;107882;1307;22962;-51
2023/09/29 00:10:35;;;;;;;18.20;9.70;;;;;;;17.59;74.06;99677.95;107842;1288;22238;-53
2023/09/29 00:13:03;;;;;;;22.30;10.20;;;;;;;17.58;74.59;99678.39;107863;1288;22440;-52
2023/09/29 00:15:28;;;;;;;15.80;9.60;;;;;;;17.58;74.72;99676.65;107619;1308;22384;-50
2023/09/29 00:17:53;;;;;;;16.80;9.20;;;;;;;17.56;74.87;99678.36;107815;1288;22425;-51
2023/09/29 00:20:24;;;;;;;14.90;9.20;;;;;;;17.55;75.02;99680.77;107849;1307;22187;-53
2023/09/29 00:22:52;;;;;;;17.20;9.60;;;;;;;17.53;75.05;99674.77;107871;1307;22266;-53
2023/09/29 00:25:17;;;;;;;14.80;9.40;;;;;;;17.50;75.23;99670.54;107886;1284;23586;-53
2023/09/29 00:27:43;;;;;;;15.60;9.40;;;;;;;17.49;75.68;99669.53;107844;1307;23146;-49
2023/09/29 00:30:10;;;;;;;14.10;8.50;;;;;;;17.49;75.43;99666.73;107876;1291;23006;-51
2023/09/29 00:32:35;;;;;;;18.10;9.80;;;;;;;17.47;75.08;99667.91;107865;1307;22258;-51
2023/09/29 00:35:00;;;;;;;23.30;10.10;;;;;;;17.45;75.69;99667.70;107862;1307;22385;-50
2023/09/29 00:37:26;;;;;;;16.20;9.00;;;;;;;17.43;75.67;99665.95;107867;1291;22247;-54
2023/09/29 00:39:52;;;;;;;17.40;10.00;;;;;;;17.42;75.33;99663.35;107846;1284;23445;-49
2023/09/29 00:42:18;;;;;;;21.60;10.20;;;;;;;17.42;75.39;99662.48;107883;1307;22974;-54
2023/09/29 00:44:43;;;;;;;18.50;10.00;;;;;;;17.41;75.67;99663.42;107867;1307;22270;-49
2023/09/29 00:47:09;;;;;;;20.50;9.70;;;;;;;17.40;75.16;99661.36;107847;1307;22424;-54
2023/09/29 00:49:35;;;;;;;16.00;9.80;;;;;;;17.38;75.19;99658.36;107877;1285;23185;-48
2023/09/29 00:52:02;;;;;;;13.40;9.80;;;;;;;17.37;76.01;99660.92;107861;1307;22270;-51
2023/09/29 00:54:29;;;;;;;16.70;9.80;;;;;;;17.36;75.65;99662.59;107879;1307;22459;-51
2023/09/29 00:56:56;;;;;;;17.00;9.60;;;;;;;17.34;75.86;99662.02;107861;1285;22970;-49
2023/09/29 00:59:24;;;;;;;15.80;9.60;;;;;;;17.31;75.68;99663.30;107876;1307;22280;-47
2023/09/29 01:01:49;;;;;;;;;;;;;;;17.30;75.90;99664.48;107886;1286;23155;-49
2023/09/29 01:04:15;;;;;;;19.10;9.20;;;;;;;17.27;75.62;99664.13;107889;1307;23088;-47
2023/09/29 01:06:40;;;;;;;17.30;10.50;;;;;;;17.26;75.84;99658.39;107853;1307;22404;-48
2023/09/29 01:09:06;;;;;;;16.60;10.10;;;;;;;17.25;75.69;99661.25;107853;1307;22315;-55
2023/09/29 01:11:43;;;;;;;20.70;10.00;;;;;;;17.24;75.84;99659.40;107863;1307;23023;-49
2023/09/29 01:14:11;;;;;;;21.00;10.50;;;;;;;17.24;75.89;99656.96;107846;1307;22422;-48
2023/09/29 01:16:40;;;;;;;17.80;10.60;;;;;;;17.23;75.53;99657.70;107890;1289;22240;-51
2023/09/29 01:19:14;;;;;;;22.00;10.70;;;;;;;17.22;75.74;99661.34;107866;1307;22474;-51
2023/09/29 01:21:40;;;;;;;18.70;10.40;;;;;;;17.21;75.62;99662.69;107890;1291;22498;-51
2023/09/29 01:24:07;;;;;;;20.90;10.40;;;;;;;17.21;75.91;99660.19;107875;1307;22379;-50
2023/09/29 01:26:32;;;;;;;17.40;10.20;;;;;;;17.21;76.60;99656.84;107874;1307;22430;-52
2023/09/29 01:28:58;;;;;;;25.10;10.60;;;;;;;17.19;76.59;99652.70;107763;1291;22363;-47
2023/09/29 01:31:23;;;;;;;19.20;10.60;;;;;;;17.18;76.72;99649.11;107743;1288;22268;-54
2023/09/29 01:33:48;;;;;;;17.80;10.20;;;;;;;17.16;77.09;99649.04;107770;1308;22251;-52
2023/09/29 01:36:14;;;;;;;23.10;11.50;;;;;;;17.13;76.67;99646.81;107766;1308;22258;-50
2023/09/29 01:38:39;;;;;;;21.80;10.80;;;;;;;17.12;76.44;99646.39;107805;1294;22278;-51
2023/09/29 01:41:04;;;;;;;23.40;11.20;;;;;;;17.09;76.91;99644.96;107767;1308;23137;-48
2023/09/29 01:43:31;;;;;;;17.40;10.30;;;;;;;17.09;76.75;99644.83;107776;1308;22248;-52
2023/09/29 01:45:56;;;;;;;19.50;10.60;;;;;;;17.09;76.88;99643.03;107803;1291;22446;-51
2023/09/29 01:48:22;;;;;;;20.00;10.30;;;;;;;17.08;76.71;99638.83;107758;1308;22312;-49
2023/09/29 01:50:47;;;;;;;20.00;10.90;;;;;;;17.07;76.95;99638.90;107774;1308;22255;-51
2023/09/29 01:53:12;;;;;;;18.30;10.40;;;;;;;17.08;76.58;99637.80;107767;1287;22472;-51
2023/09/29 01:55:38;;;;;;;15.80;10.30;;;;;;;17.06;76.92;99637.21;107767;1308;22336;-48
2023/09/29 01:58:05;;;;;;;17.80;10.30;;;;;;;17.06;76.88;99638.52;107767;1290;22243;-48
2023/09/29 02:00:30;;;;;;;20.10;11.20;;;;;;;17.05;77.06;99637.52;107570;1308;23107;-48
2023/09/29 02:02:56;;;;;;;18.70;10.60;;;;;;;17.02;76.96;99635.40;107762;1308;22424;-49
2023/09/29 02:05:22;;;;;;;21.10;11.10;;;;;;;17.02;77.12;99637.95;107771;1308;22397;-48
2023/09/29 02:07:49;;;;;;;18.80;10.70;;;;;;;17.01;77.21;99638.89;107533;1308;22270;-48
2023/09/29 02:10:20;;;;;;;21.00;11.60;;;;;;;16.99;77.20;99638.15;107799;1308;22416;-48
2023/09/29 02:12:53;;;;;;;19.30;10.40;;;;;;;16.96;77.25;99638.89;107785;1290;22265;-51
2023/09/29 02:15:19;;;;;;;20.80;10.50;;;;;;;16.95;77.56;99641.13;107784;1286;22253;-50
2023/09/29 02:17:47;;;;;;;16.90;10.80;;;;;;;16.94;77.57;99639.45;107790;1308;22292;-51
2023/09/29 02:20:21;;;;;;;22.10;11.50;;;;;;;16.92;77.95;99636.73;107751;1308;22316;-51
2023/09/29 02:22:48;;;;;;;19.80;11.70;;;;;;;16.91;77.76;99638.56;107786;1291;22253;-49
2023/09/29 02:25:15;;;;;;;;;;;;;;;16.90;77.97;99638.29;107806;1308;22464;-48
2023/09/29 02:27:40;;;;;;;;;;;;;;;16.87;77.85;99636.16;107798;1308;22457;-50
2023/09/29 02:30:09;;;;;;;20.00;11.50;;;;;;;16.85;77.48;99638.29;107799;1288;22257;-50
2023/09/29 02:32:38;;;;;;;26.10;11.30;;;;;;;16.84;77.93;99635.92;107778;1291;22254;-48
2023/09/29 02:35:04;;;;;;;23.70;11.00;;;;;;;16.81;78.02;99635.04;107769;1308;23014;-49
2023/09/29 02:37:30;;;;;;;21.40;11.00;;;;;;;16.79;78.72;99633.06;107805;1286;22423;-50
2023/09/29 02:39:55;;;;;;;17.70;11.00;;;;;;;16.76;78.49;99633.98;107798;1308;22432;-49
2023/09/29 02:42:21;;;;;;;26.00;10.60;;;;;;;16.75;78.59;99635.49;107784;1294;22250;-51
2023/09/29 02:44:46;;;;;;;17.50;11.10;;;;;;;16.74;78.42;99638.07;107762;1308;22365;-51
2023/09/29 02:47:13;;;;;;;20.60;10.70;;;;;;;16.71;78.55;99638.59;107801;1308;22460;-51
2023/09/29 02:49:39;;;;;;;25.50;11.70;;;;;;;16.69;78.87;99635.38;107807;1308;23100;-53
2023/09/29 02:52:04;;;;;;;21.40;11.20;;;;;;;16.66;78.79;99636.30;107797;1291;22554;-49
2023/09/29 02:54:30;;;;;;;17.00;11.40;;;;;;;16.66;78.81;99637.05;107756;1308;22374;-49
2023/09/29 02:57:00;;;;;;;22.20;11.90;;;;;;;16.66;78.65;99636.30;107538;1287;296431;-50
2023/09/29 03:02:47;;;;;;;21.00;12.30;;;;;;;16.66;79.32;99633.31;107271;1299;545918;-55
2023/09/29 03:05:14;;;;;;;18.10;12.10;;;;;;;16.62;79.13;99630.40;107843;1296;22459;-51
2023/09/29 03:07:41;;;;;;;25.00;11.90;;;;;;;16.59;79.11;99630.13;107728;1301;22345;-49
2023/09/29 03:10:06;;;;;;;24.80;12.50;;;;;;;16.56;79.42;99628.95;107738;1309;23043;-49
2023/09/29 03:12:32;;;;;;;25.10;13.80;;;;;;;16.52;79.70;99625.19;107726;1288;22993;-52
2023/09/29 03:14:57;;;;;;;22.20;12.50;;;;;;;16.47;79.29;99624.80;107721;1291;22242;-49
2023/09/29 03:17:22;;;;;;;22.80;12.60;;;;;;;16.46;79.37;99624.04;107780;1288;164643;-49
2023/09/29 03:19:48;;;;;;;20.30;12.40;;;;;;;16.42;79.52;99620.73;107932;1307;22208;-47
2023/09/29 03:22:14;;;;;;;25.30;13.00;;;;;;;16.41;79.91;99621.05;107935;1285;22999;-50
2023/09/29 03:24:40;;;;;;;34.90;14.10;;;;;;;16.38;79.74;99619.48;107949;1298;22242;-51
2023/09/29 03:27:05;;;;;;;22.00;13.20;;;;;;;16.37;79.99;99617.09;108032;1306;22464;-49
2023/09/29 03:29:31;;;;;;;23.60;14.30;;;;;;;16.35;80.31;99616.55;108047;1286;22263;-49
2023/09/29 03:31:56;;;;;;;26.20;13.20;;;;;;;16.33;79.81;99613.66;108031;1287;22355;-50
2023/09/29 03:34:23;;;;;;;25.60;13.20;;;;;;;16.33;80.05;99617.54;108040;1306;22464;-46
2023/09/29 03:36:50;;;;;;;24.70;13.30;;;;;;;16.34;80.12;99616.98;108034;1292;22394;-50
2023/09/29 03:39:17;;;;;;;28.10;13.60;;;;;;;16.31;79.76;99613.59;108045;1306;22394;-51
2023/09/29 03:41:43;;;;;;;24.50;13.50;;;;;;;16.30;79.92;99610.69;108049;1306;22521;-50
2023/09/29 03:44:08;;;;;;;22.80;13.10;;;;;;;16.28;80.47;99612.41;108074;1285;22411;-51
2023/09/29 03:46:33;;;;;;;24.60;13.10;;;;;;;16.28;80.23;99611.41;108043;1306;23318;-47
2023/09/29 03:48:59;;;;;;;31.80;14.20;;;;;;;16.27;80.40;99607.92;108050;1306;22917;-51
2023/09/29 03:51:25;;;;;;;26.10;12.60;;;;;;;16.25;80.29;99603.08;108036;1288;22678;-52
2023/09/29 03:53:52;;;;;;;25.10;13.00;;;;;;;16.24;80.18;99604.25;108071;1306;22314;-50
2023/09/29 03:56:18;;;;;;;31.80;13.30;;;;;;;16.22;79.95;99603.48;108056;1306;23239;-50
2023/09/29 03:58:44;;;;;;;30.40;12.50;;;;;;;16.22;80.53;99601.95;108041;1306;22972;-50
2023/09/29 04:01:09;;;;;;;22.60;13.10;;;;;;;16.21;80.36;99601.98;108041;1302;23429;-51
2023/09/29 04:03:35;;;;;;;23.40;12.40;;;;;;;16.21;80.07;99598.11;108049;1285;22244;-50
2023/09/29 04:06:00;;;;;;;27.20;13.40;;;;;;;16.19;80.06;99598.77;108035;1295;22220;-54
2023/09/29 04:08:25;;;;;;;26.70;13.30;;;;;;;16.18;80.44;99599.73;108054;1306;23118;-49
2023/09/29 04:10:52;;;;;;;31.80;13.70;;;;;;;16.17;80.33;99594.71;108040;1301;22252;-51
2023/09/29 04:13:18;;;;;;;23.60;13.70;;;;;;;16.16;80.46;99594.20;108040;1306;22245;-48
2023/09/29 04:15:43;;;;;;;27.20;14.20;;;;;;;16.14;80.56;99593.86;108048;1306;22239;-51
2023/09/29 04:18:08;;;;;;;28.00;14.80;;;;;;;16.11;80.04;99594.02;108022;1301;22252;-51
2023/09/29 04:20:34;;;;;;;28.00;14.60;;;;;;;16.09;80.34;99596.34;108040;1288;23278;-55
2023/09/29 04:23:00;;;;;;;28.30;13.80;;;;;;;16.06;80.35;99596.00;107993;1304;22814;-50
2023/09/29 04:25:25;;;;;;;27.60;15.00;;;;;;;16.03;80.54;99597.44;108056;1287;22225;-52
2023/09/29 04:27:51;;;;;;;26.50;13.90;;;;;;;16.01;80.74;99595.52;108047;1302;22327;-50
2023/09/29 04:30:16;;;;;;;41.20;14.90;;;;;;;15.99;80.72;99597.61;107691;1306;22203;-48
2023/09/29 04:32:41;;;;;;;27.90;14.00;;;;;;;15.95;81.02;99593.98;108031;1293;22322;-49
2023/09/29 04:35:07;;;;;;;25.50;14.20;;;;;;;15.94;80.96;99596.35;108011;1306;22249;-52
2023/09/29 04:37:32;;;;;;;27.20;15.20;;;;;;;15.92;81.20;99600.34;108010;1300;22259;-50
2023/09/29 04:39:57;;;;;;;27.30;14.10;;;;;;;15.91;81.57;99599.92;108026;1289;22255;-50
2023/09/29 04:42:24;;;;;;;27.50;13.70;;;;;;;15.89;81.25;99597.61;108010;1287;22505;-55
2023/09/29 04:44:49;;;;;;;24.60;13.70;;;;;;;15.90;81.24;99598.10;108037;1306;22131;-47
2023/09/29 04:47:14;;;;;;;25.40;13.90;;;;;;;15.91;81.29;99594.98;108027;1301;22897;-51
2023/09/29 04:49:39;;;;;;;27.30;13.00;;;;;;;15.93;81.19;99593.98;108018;1289;22483;-54
2023/09/29 04:52:05;;;;;;;25.50;12.50;;;;;;;15.95;81.15;99594.55;108024;1286;22476;-52
2023/09/29 04:54:30;;;;;;;22.60;13.10;;;;;;;15.96;80.70;99596.77;108042;1306;22268;-51
2023/09/29 04:56:55;;;;;;;24.10;13.30;;;;;;;15.95;80.85;99600.86;108050;1304;22234;-54
2023/09/29 04:59:21;;;;;;;26.50;13.10;;;;;;;15.97;80.66;99599.54;108023;1306;22633;-51
2023/09/29 05:01:46;;;;;;;25.20;13.30;;;;;;;15.98;80.67;99597.51;108028;1306;22658;-53
2023/09/29 05:04:12;;;;;;;29.90;13.80;;;;;;;15.98;80.42;99597.14;108030;1289;23117;-54
2023/09/29 05:06:37;;;;;;;28.60;13.80;;;;;;;16.00;80.58;99599.42;108026;1306;22244;-52
2023/09/29 05:09:02;;;;;;;30.30;13.00;;;;;;;16.00;80.17;99598.38;108021;1299;23223;-51
2023/09/29 05:11:28;;;;;;;24.70;13.80;;;;;;;15.99;80.23;99593.84;108009;1306;23188;-52
2023/09/29 05:13:55;;;;;;;24.60;13.30;;;;;;;15.98;80.71;99590.74;108023;1306;22400;-52
2023/09/29 05:16:21;;;;;;;27.70;13.40;;;;;;;15.96;80.73;99596.01;108042;1306;22986;-50
2023/09/29 05:18:47;;;;;;;30.70;14.70;;;;;;;15.96;80.81;99594.64;108034;1285;22320;-51
2023/09/29 05:21:13;;;;;;;34.80;14.50;;;;;;;15.95;80.95;99601.45;107812;1291;22419;-50
2023/09/29 05:23:38;;;;;;;22.30;14.80;;;;;;;15.93;80.88;99604.56;107996;1306;22913;-50
2023/09/29 05:26:07;;;;;;;21.50;14.00;;;;;;;15.91;80.86;99603.80;108023;1306;22363;-56
2023/09/29 05:28:32;;;;;;;28.70;14.40;;;;;;;15.90;80.64;99604.63;108035;1285;22437;-50
2023/09/29 05:30:58;;;;;;;28.60;14.20;;;;;;;15.90;81.16;99600.91;108049;1306;22236;-50
2023/09/29 05:33:24;;;;;;;36.00;14.80;;;;;;;15.90;81.30;99602.63;108045;1304;22261;-55
2023/09/29 05:35:49;;;;;;;35.80;14.90;;;;;;;15.92;81.07;99603.43;108019;1306;22887;-51
2023/09/29 05:38:15;;;;;;;40.80;15.30;;;;;;;15.93;80.79;99608.43;108017;1302;22777;-50
2023/09/29 05:40:40;;;;;;;34.70;16.20;;;;;;;15.96;81.25;99603.63;108008;1306;22193;-51
2023/09/29 05:43:10;;;;;;;34.70;15.80;;;;;;;15.97;80.68;99602.70;108022;1306;22978;-54
2023/09/29 05:45:42;;;;;;;37.50;15.60;;;;;;;15.97;80.90;99603.96;108022;1306;23117;-54
2023/09/29 05:48:07;;;;;;;24.70;13.60;;;;;;;15.96;81.25;99610.39;108015;1306;22346;-51
2023/09/29 05:50:33;;;;;;;36.10;14.50;;;;;;;15.97;80.91;99611.20;108039;1293;22249;-52
2023/09/29 05:52:59;;;;;;;41.50;14.60;;;;;;;15.98;80.65;99613.79;108037;1289;22394;-49
2023/09/29 05:55:24;;;;;;;24.30;14.50;;;;;;;15.98;81.10;99613.95;108040;1289;22423;-49
2023/09/29 05:57:51;;;;;;;28.10;13.40;;;;;;;16.00;80.87;99612.38;108040;1306;22454;-52
2023/09/29 06:00:20;;;;;;;34.90;14.90;;;;;;;16.02;81.10;99607.08;108046;1285;22243;-53
2023/09/29 06:02:46;;;;;;;30.50;14.00;;;;;;;16.05;80.89;99611.61;108001;1305;22317;-53
2023/09/29 06:05:12;;;;;;;25.60;14.10;;;;;;;16.08;80.87;99606.14;108034;1289;22421;-53
2023/09/29 06:07:37;;;;;;;30.90;14.50;;;;;;;16.13;80.90;99606.63;108026;1303;22491;-53
2023/09/29 06:10:04;;;;;;;35.80;14.20;;;;;;;16.18;80.56;99605.58;108025;1306;23133;-53
2023/09/29 06:12:29;;;;;;;41.70;14.40;;;;;;;16.23;80.46;99608.95;108034;1295;23038;-50
2023/09/29 06:14:55;;;;;;;33.00;13.50;;;;;;;16.26;80.18;99611.38;108038;1288;22246;-53
2023/09/29 06:17:20;;;;;;;30.40;13.10;;;;;;;16.29;79.98;99609.50;108019;1306;22216;-53
2023/09/29 06:19:45;;;;;;;31.50;13.80;;;;;;;16.34;79.71;99611.68;108031;1288;22439;-52
2023/09/29 06:22:10;;;;;;;24.50;12.00;;;;;;;16.38;79.36;99611.90;108032;1289;22256;-51
2023/09/29 06:24:36;;;;;;;26.10;12.60;;;;;;;16.42;79.50;99609.96;108024;1306;22426;-52
2023/09/29 06:27:01;;;;;;;24.90;12.40;;;;;;;16.46;79.13;99611.05;108054;1286;22466;-52
2023/09/29 06:29:26;;;;;;;23.20;12.10;;;;;;;16.50;78.98;99611.19;108002;1306;22236;-52
2023/09/29 06:31:53;;;;;;;22.60;12.40;;;;;;;16.53;78.83;99612.01;108029;1285;22464;-52
2023/09/29 06:34:19;;;;;;;32.70;12.50;;;;;;;16.57;78.73;99613.13;108023;1306;22229;-54
2023/09/29 06:36:44;;;;;;;27.10;11.30;;;;;;;16.62;78.63;99614.36;108023;1306;22964;-52
2023/09/29 06:39:09;;;;;;;34.70;12.50;;;;;;;16.65;78.28;99616.08;108034;1288;23055;-55
2023/09/29 06:41:34;;;;;;;40.00;12.50;;;;;;;16.70;78.10;99619.07;108029;1306;22232;-54
2023/09/29 06:44:00;;;;;;;26.20;12.40;;;;;;;16.75;77.99;99619.20;108048;1289;22943;-53
2023/09/29 06:46:25;;;;;;;23.00;11.90;;;;;;;16.81;77.82;99622.98;107997;1306;22217;-51
2023/09/29 06:48:52;;;;;;;25.40;11.50;;;;;;;16.86;77.54;99622.27;108009;1294;22292;-52
2023/09/29 06:51:17;;;;;;;22.30;11.30;;;;;;;16.91;77.27;99624.41;107780;1306;23203;-48
2023/09/29 06:53:43;;;;;;;23.30;10.90;;;;;;;16.96;77.14;99623.87;108019;1306;22232;-51
2023/09/29 06:56:08;;;;;;;25.50;11.10;;;;;;;17.01;76.98;99626.85;108021;1289;23233;-51
2023/09/29 06:58:33;;;;;;;21.90;10.10;;;;;;;17.06;76.88;99622.88;108024;1288;22486;-52
2023/09/29 07:00:59;;;;;;;37.00;11.70;;;;;;;17.12;76.79;99624.94;107806;1307;22458;-54
2023/09/29 07:03:26;;;;;;;21.00;10.70;;;;;;;17.17;76.32;99623.09;108020;1302;22791;-51
2023/09/29 07:05:51;;;;;;;20.50;10.90;;;;;;;17.24;76.22;99627.39;108021;1288;23040;-52
2023/09/29 07:08:17;;;;;;;41.00;11.50;;;;;;;17.29;76.03;99625.38;108022;1295;23059;-49
2023/09/29 07:10:43;;;;;;;23.50;11.70;;;;;;;17.35;75.90;99626.34;108022;1306;22367;-51
2023/09/29 07:13:08;;;;;;;25.40;10.90;;;;;;;17.39;75.80;99625.52;108036;1286;22270;-52
2023/09/29 07:15:34;;;;;;;25.60;10.30;;;;;;;17.43;75.59;99632.08;108020;1288;22433;-54
2023/09/29 07:17:59;;;;;;;25.30;11.30;;;;;;;17.48;75.36;99631.20;108025;1306;22211;-53
2023/09/29 07:20:24;;;;;;;23.80;11.00;;;;;;;17.53;75.06;99628.44;108034;1289;22476;-55
2023/09/29 07:22:51;;;;;;;23.80;11.00;;;;;;;17.60;74.94;99628.28;107997;1306;22253;-46
2023/09/29 07:25:18;;;;;;;23.60;10.90;;;;;;;17.64;75.01;99628.84;108029;1289;22235;-50
2023/09/29 07:27:44;;;;;;;21.80;9.70;;;;;;;17.69;74.70;99629.30;108009;1295;22498;-52
2023/09/29 07:30:09;;;;;;;18.30;9.70;;;;;;;17.75;74.57;99627.77;108023;1306;22347;-50
2023/09/29 07:32:39;;;;;;;14.40;9.10;;;;;;;17.81;74.36;99627.70;108022;1299;22319;-50
2023/09/29 07:35:07;;;;;;;26.90;9.30;;;;;;;17.88;74.23;99629.80;108035;1288;22947;-49
2023/09/29 07:37:32;;;;;;;28.90;9.50;;;;;;;17.96;74.15;99632.70;108028;1306;23047;-54
2023/09/29 07:39:58;;;;;;;17.90;9.00;;;;;;;18.03;74.12;99630.87;107992;1289;22233;-51
2023/09/29 07:42:23;;;;;;;18.40;8.80;;;;;;;18.11;73.93;99630.83;107998;1288;23078;-49
2023/09/29 07:44:48;;;;;;;21.40;9.20;;;;;;;18.20;73.47;99631.69;108016;1306;22223;-53
2023/09/29 07:47:13;;;;;;;30.20;9.00;;;;;;;18.30;73.65;99630.17;108024;1306;22245;-49
2023/09/29 07:49:40;;;;;;;19.10;7.70;;;;;;;18.39;72.72;99633.26;108011;1306;23308;-49
2023/09/29 07:52:09;;;;;;;20.70;8.00;;;;;;;18.51;72.74;99633.95;108023;1306;23083;-49
2023/09/29 07:54:34;;;;;;;18.30;7.50;;;;;;;18.62;72.06;99633.90;108024;1288;22410;-49
2023/09/29 07:57:00;;;;;;;23.50;8.80;;;;;;;18.75;71.84;99634.23;108012;1306;22231;-49
2023/09/29 07:59:26;;;;;;;17.50;8.00;;;;;;;18.86;71.53;99633.49;108017;1302;22323;-52
2023/09/29 08:01:52;;;;;;;21.60;9.00;;;;;;;19.00;71.60;99633.58;108014;1306;23431;-50
2023/09/29 08:04:17;;;;;;;21.40;7.80;;;;;;;19.10;71.55;99629.55;108038;1288;22573;-52
2023/09/29 08:06:43;;;;;;;14.70;7.30;;;;;;;19.18;71.18;99633.25;108017;1306;22217;-51
2023/09/29 08:09:08;;;;;;;15.10;7.70;;;;;;;19.25;71.05;99631.07;107996;1306;22479;-48
2023/09/29 08:11:34;;;;;;;17.10;7.30;;;;;;;19.32;70.98;99630.88;108026;1306;22412;-48
2023/09/29 08:14:00;;;;;;;22.70;8.00;;;;;;;19.38;70.40;99629.98;108005;1291;22263;-51
2023/09/29 08:16:25;;;;;;;14.60;7.10;;;;;;;19.47;69.53;99626.67;108008;1306;22881;-53
2023/09/29 08:18:50;;;;;;;13.20;7.70;;;;;;;19.57;69.48;99632.02;108001;1306;22243;-52
2023/09/29 08:21:16;;;;;;;22.40;11.50;;;;;;;19.66;68.33;99628.83;108035;1306;22217;-54
2023/09/29 08:23:41;;;;;;;19.40;7.20;;;;;;;19.76;68.51;99628.98;108011;1306;22237;-50
2023/09/29 08:26:06;;;;;;;14.60;7.00;;;;;;;19.85;66.79;99627.84;108011;1306;22247;-51
2023/09/29 08:28:31;;;;;;;14.10;6.60;;;;;;;19.95;67.78;99629.83;108017;1306;22337;-52
2023/09/29 08:30:57;;;;;;;11.40;5.70;;;;;;;20.03;66.66;99630.55;107990;1306;22236;-53
2023/09/29 08:33:27;;;;;;;24.80;6.20;;;;;;;20.12;66.92;99629.70;108033;1306;23115;-50
2023/09/29 08:35:55;;;;;;;17.20;6.40;;;;;;;20.26;64.57;99630.08;107985;1288;22276;-48
2023/09/29 08:38:21;;;;;;;12.60;5.70;;;;;;;20.41;64.31;99623.23;107986;1298;22419;-52
2023/09/29 08:40:49;;;;;;;13.20;6.30;;;;;;;20.55;62.97;99621.58;107822;1307;22216;-52
2023/09/29 08:43:15;;;;;;;15.30;5.30;;;;;;;20.69;62.73;99623.69;107833;1308;22900;-48
2023/09/29 08:45:45;;;;;;;13.00;5.20;;;;;;;20.81;62.61;99624.52;107830;1308;23228;-52
2023/09/29 08:48:12;;;;;;;10.80;5.20;;;;;;;20.93;61.70;99619.33;107824;1301;22231;-50
2023/09/29 08:50:41;;;;;;;10.30;5.70;;;;;;;21.04;62.32;99616.85;107827;1307;22236;-49
2023/09/29 08:53:08;;;;;;;15.60;5.80;;;;;;;21.15;59.51;99616.35;107863;1307;23184;-50
2023/09/29 08:55:35;;;;;;;8.80;5.60;;;;;;;21.27;58.72;99612.91;107841;1307;23040;-49
2023/09/29 08:58:01;;;;;;;14.00;5.70;;;;;;;21.39;57.49;99613.87;107832;1302;22531;-51
2023/09/29 09:00:27;;;;;;;10.60;4.70;;;;;;;21.50;58.53;99612.20;107847;1298;22216;-55
2023/09/29 09:02:52;;;;;;;16.90;5.50;;;;;;;21.60;56.40;99609.49;107829;1307;22952;-52
2023/09/29 09:05:20;;;;;;;10.40;4.50;;;;;;;21.77;55.00;99613.17;107823;1289;22444;-55
2023/09/29 09:07:45;;;;;;;16.70;5.70;;;;;;;22.03;55.35;99607.11;107842;1289;22955;-50
2023/09/29 09:10:13;;;;;;;9.50;4.50;;;;;;;22.25;56.56;99607.25;107845;1298;22251;-53
2023/09/29 09:12:43;;;;;;;9.00;4.70;;;;;;;22.39;54.88;99607.34;107849;1292;22909;-49
2023/09/29 09:15:09;;;;;;;18.00;4.90;;;;;;;22.68;54.18;99606.35;107857;1305;22322;-52
2023/09/29 09:17:35;;;;;;;16.70;5.00;;;;;;;22.98;54.50;99601.69;107861;1289;22399;-52
2023/09/29 09:20:01;;;;;;;9.10;4.50;;;;;;;23.04;53.62;99599.22;107857;1288;23159;-51
2023/09/29 09:22:31;;;;;;;14.60;5.00;;;;;;;23.02;53.38;99600.21;107857;1289;22262;-51
2023/09/29 09:25:04;;;;;;;8.50;4.40;;;;;;;22.99;52.06;99599.07;107830;1308;22939;-54
2023/09/29 09:27:37;;;;;;;11.50;5.10;;;;;;;22.97;51.70;99594.30;107827;1308;22512;-47
2023/09/29 09:30:03;;;;;;;11.20;4.80;;;;;;;22.95;51.15;99592.88;107844;1307;22219;-56
2023/09/29 09:32:28;;;;;;;9.80;4.40;;;;;;;22.95;51.96;99593.08;107840;1295;22891;-47
2023/09/29 09:34:54;;;;;;;11.50;4.30;;;;;;;22.91;51.21;99592.79;107813;1306;22256;-49
2023/09/29 09:37:26;;;;;;;11.30;4.10;;;;;;;22.91;50.82;99592.55;107835;1288;23169;-43
2023/09/29 09:39:55;;;;;;;7.90;3.70;;;;;;;22.93;50.12;99593.41;107852;1292;22434;-43
2023/09/29 09:42:24;;;;;;;11.20;5.10;;;;;;;22.94;48.63;99588.89;107858;1294;22248;-44
2023/09/29 09:44:50;;;;;;;14.60;4.00;;;;;;;22.95;47.42;99587.91;107867;1307;22249;-41
2023/09/29 09:47:16;;;;;;;13.40;4.30;;;;;;;22.96;46.93;99585.67;107847;1289;22255;-41
2023/09/29 09:49:47;;;;;;;8.70;4.50;;;;;;;22.96;46.93;99585.33;107822;1290;22379;-46
2023/09/29 09:52:37;;;;;;;7.40;4.00;;;;;;;22.98;48.12;99582.77;107822;1299;22679;-48
2023/09/29 09:55:13;;;;;;;10.20;4.00;;;;;;;22.98;47.90;99584.33;107839;1302;22213;-49
2023/09/29 09:57:43;;;;;;;13.60;4.10;;;;;;;22.94;47.35;99579.36;107853;1294;22801;-46
2023/09/29 10:00:12;;;;;;;12.30;4.30;;;;;;;22.92;46.82;99581.45;107864;1308;22258;-40
2023/09/29 10:02:40;;;;;;;13.30;4.10;;;;;;;22.97;46.67;99579.09;107838;1289;22355;-45
2023/09/29 10:05:16;;;;;;;13.90;4.20;;;;;;;23.05;47.15;99579.02;107882;1290;22238;-47
2023/09/29 10:07:53;;;;;;;12.50;4.20;;;;;;;23.07;47.22;99576.50;107848;1292;22300;-46
2023/09/29 10:10:24;;;;;;;14.90;3.90;;;;;;;23.10;46.27;99572.15;107858;1307;22398;-45
2023/09/29 10:12:54;;;;;;;13.60;4.10;;;;;;;23.13;47.26;99572.36;107896;1285;22909;-43
2023/09/29 10:15:19;;;;;;;11.40;4.10;;;;;;;23.14;47.42;99573.65;107851;1308;22210;-47
2023/09/29 10:17:47;;;;;;;6.80;3.90;;;;;;;23.17;47.68;99570.28;107863;1285;22248;-46
2023/09/29 10:20:22;;;;;;;;;;;;;;;23.19;45.79;99568.34;107897;1298;23253;-43
2023/09/29 10:22:54;;;;;;;23.20;5.00;;;;;;;23.26;45.28;99564.13;107843;1307;22110;-45
2023/09/29 10:25:20;;;;;;;7.90;4.30;;;;;;;23.34;45.39;99564.56;107872;1307;22245;-44
2023/09/29 10:27:52;;;;;;;12.10;4.90;;;;;;;23.39;44.56;99566.39;107889;1299;22253;-42
2023/09/29 10:30:17;;;;;;;20.30;4.90;;;;;;;23.46;43.84;99565.49;107888;1302;22399;-40
2023/09/29 10:32:48;;;;;;;7.10;4.10;;;;;;;23.53;45.60;99562.81;107851;1295;22456;-46
2023/09/29 10:35:19;;;;;;;12.50;4.60;;;;;;;23.55;44.15;99564.05;107898;1302;22234;-41
2023/09/29 10:37:55;;;;;;;11.00;4.20;;;;;;;23.61;43.72;99564.80;107936;1302;22943;-48
2023/09/29 10:40:31;;;;;;;10.00;5.00;;;;;;;23.66;44.37;99564.25;107920;1305;23492;-44
2023/09/29 10:43:01;;;;;;;14.10;3.90;;;;;;;23.72;44.16;99561.83;107931;1301;22328;-41
2023/09/29 10:45:30;;;;;;;6.30;4.40;;;;;;;23.75;43.85;99558.85;107954;1300;22578;-46
2023/09/29 10:48:06;;;;;;;13.40;4.50;;;;;;;23.79;43.53;99558.25;107992;1307;22420;-46
2023/09/29 10:50:58;;;;;;;10.30;4.50;;;;;;;23.88;43.24;99555.50;107878;1298;23021;-43
2023/09/29 10:53:24;;;;;;;8.40;3.90;;;;;;;23.97;43.32;99546.30;107170;1314;22242;-44
2023/09/29 10:55:51;;;;;;;14.30;4.30;;;;;;;24.01;42.89;99543.27;107175;1296;22246;-42
2023/09/29 10:58:17;;;;;;;;;;;;;;;24.06;42.44;99541.12;107084;1305;23292;-44
2023/09/29 11:00:50;;;;;;;8.50;3.30;;;;;;;24.11;42.24;99538.61;107185;1314;22346;-44
2023/09/29 11:03:18;;;;;;;11.40;4.10;;;;;;;24.13;41.81;99535.79;107156;1292;22302;-43
2023/09/29 11:05:51;;;;;;;6.40;4.30;;;;;;;24.32;41.30;99532.17;107166;1305;22247;-40
2023/09/29 11:08:21;;;;;;;10.60;4.00;;;;;;;25.23;38.86;99528.20;107181;1315;22287;-45
2023/09/29 11:10:57;;;;;;;8.20;3.60;;;;;;;26.64;37.82;99527.70;107127;1311;22297;-44
2023/09/29 11:13:23;;;;;;;10.20;4.10;;;;;;;27.87;34.51;99528.52;107121;1311;22237;-39
2023/09/29 11:15:49;;;;;;;11.70;4.10;;;;;;;28.95;34.20;99519.10;107118;1291;22274;-47